Time;durP1;ratioP1;P1;durP2;ratioP2;P2;SDS_P1;SDS_P2;PMS_P1;PMS_P2;Temp;Humidity;BMP_temperature;BMP_pressure;BME280_temperature;BME280_humidity;BME280_pressure;Samples;Min_cycle;Max_cycle;Signal;HPM_P1;HPM_P2
2023/03/26 00:01:04;;;;;;;5.22;2.05;;;;;;;4.15;100.00;99598.19;6267977;22;20015;-73
2023/03/26 00:03:32;;;;;;;7.45;2.17;;;;;;;4.19;100.00;99599.53;6234576;22;20008;-72
2023/03/26 00:06:06;;;;;;;9.45;2.28;;;;;;;4.14;100.00;99605.31;6263837;23;20038;-72
2023/03/26 00:08:34;;;;;;;6.80;2.28;;;;;;;4.05;100.00;99606.16;6265304;23;20016;-72
2023/03/26 00:11:02;;;;;;;3.53;2.03;;;;;;;4.16;100.00;99611.28;6267376;22;20016;-73
2023/03/26 00:13:29;;;;;;;4.22;1.92;;;;;;;4.17;100.00;99610.28;6268082;23;20030;-72
2023/03/26 00:15:55;;;;;;;5.10;1.90;;;;;;;4.15;100.00;99612.28;6269545;23;20012;-71
2023/03/26 00:18:29;;;;;;;5.03;1.83;;;;;;;4.17;100.00;99617.44;6262615;23;20028;-72
2023/03/26 00:21:01;;;;;;;5.80;1.95;;;;;;;4.10;100.00;99622.47;6269432;22;20091;-72
2023/03/26 00:23:29;;;;;;;7.15;1.70;;;;;;;3.98;100.00;99621.84;6268164;23;20016;-73
2023/03/26 00:25:56;;;;;;;5.10;1.85;;;;;;;4.11;100.00;99629.47;6269812;23;20012;-73
2023/03/26 00:28:25;;;;;;;3.97;1.33;;;;;;;4.20;100.00;99625.09;6269594;22;20009;-73
2023/03/26 00:31:00;;;;;;;7.70;1.67;;;;;;;4.17;100.00;99623.56;6267594;22;20028;-72
2023/03/26 00:33:28;;;;;;;4.75;1.63;;;;;;;4.10;100.00;99606.56;6268097;22;20024;-71
2023/03/26 00:35:57;;;;;;;8.30;1.92;;;;;;;4.13;100.00;99614.22;6268947;23;20007;-72
2023/03/26 00:38:25;;;;;;;5.07;1.30;;;;;;;4.14;100.00;99621.22;6266660;23;20088;-71
2023/03/26 00:40:52;;;;;;;8.38;1.75;;;;;;;4.02;100.00;99615.25;6268593;23;20023;-72
2023/03/26 00:43:20;;;;;;;4.63;1.75;;;;;;;4.05;100.00;99616.78;6268173;23;20024;-72
2023/03/26 00:45:48;;;;;;;5.57;1.50;;;;;;;4.04;100.00;99625.75;6268400;23;20039;-73
2023/03/26 00:48:16;;;;;;;7.55;1.85;;;;;;;4.06;100.00;99619.28;6268086;23;20027;-72
2023/03/26 00:50:45;;;;;;;6.00;1.65;;;;;;;4.03;100.00;99619.56;6267052;23;20036;-72
2023/03/26 00:53:13;;;;;;;6.53;1.67;;;;;;;4.05;100.00;99622.91;6268811;23;20028;-72
2023/03/26 00:55:40;;;;;;;4.60;1.45;;;;;;;4.08;100.00;99622.63;6267627;22;20089;-72
2023/03/26 00:58:10;;;;;;;5.70;1.77;;;;;;;4.07;100.00;99620.09;6266881;23;20059;-73
2023/03/26 01:00:57;;;;;;;5.82;1.48;;;;;;;4.17;100.00;99628.03;6265023;22;20012;-73
2023/03/26 01:03:28;;;;;;;9.63;1.80;;;;;;;4.02;100.00;99628.53;6268465;22;20012;-73
2023/03/26 01:06:01;;;;;;;9.20;1.83;;;;;;;3.98;100.00;99628.97;6266079;22;20024;-72
2023/03/26 01:08:32;;;;;;;7.70;2.08;;;;;;;4.06;100.00;99631.72;6256193;23;20000;-72
2023/03/26 01:11:15;;;;;;;6.68;2.00;;;;;;;4.02;100.00;99633.00;6267222;23;20031;-72
2023/03/26 01:13:47;;;;;;;4.78;1.58;;;;;;;3.95;100.00;99638.03;6263126;23;20016;-70
2023/03/26 01:16:23;;;;;;;9.52;1.88;;;;;;;3.98;100.00;99643.06;6262829;23;20047;-69
2023/03/26 01:18:52;;;;;;;6.63;2.00;;;;;;;4.25;100.00;99644.09;6251391;23;20040;-72
2023/03/26 01:21:27;;;;;;;8.05;2.30;;;;;;;4.21;100.00;99646.22;6261064;23;20036;-71
2023/03/26 01:24:04;;;;;;;5.15;2.03;;;;;;;4.23;100.00;99651.38;6261894;23;20016;-72
2023/03/26 01:27:03;;;;;;;8.60;1.77;;;;;;;3.94;100.00;99651.47;6260712;23;20020;-72
2023/03/26 01:29:38;;;;;;;4.78;2.30;;;;;;;3.93;100.00;99650.63;6240309;22;20406;-74
2023/03/26 01:32:42;;;;;;;9.05;2.47;;;;;;;3.77;100.00;99624.69;6241651;23;20016;-74
2023/03/26 01:35:38;;;;;;;6.68;1.95;;;;;;;3.64;100.00;99634.75;6239031;23;20087;-73
2023/03/26 01:38:17;;;;;;;7.78;1.40;;;;;;;3.60;100.00;99638.69;6238835;23;20016;-73
2023/03/26 01:41:05;;;;;;;5.53;1.35;;;;;;;3.69;100.00;99643.13;6239924;23;20400;-72
2023/03/26 01:43:40;;;;;;;4.03;1.23;;;;;;;3.59;100.00;99650.28;6239797;23;20434;-72
2023/03/26 01:46:09;;;;;;;5.35;1.17;;;;;;;3.50;100.00;99648.47;6240266;23;20087;-71
2023/03/26 01:48:39;;;;;;;5.38;1.23;;;;;;;3.35;100.00;99642.75;6239021;23;20482;-71
2023/03/26 01:51:07;;;;;;;2.33;1.20;;;;;;;3.34;100.00;99644.56;6241862;23;20020;-71
2023/03/26 01:53:38;;;;;;;3.83;1.40;;;;;;;3.28;100.00;99639.81;6240947;23;20032;-71
2023/03/26 01:56:15;;;;;;;2.42;1.27;;;;;;;3.29;100.00;99636.19;6242001;23;20026;-71
2023/03/26 01:58:58;;;;;;;2.78;1.60;;;;;;;3.36;100.00;99636.47;6241459;23;20031;-71
2023/03/26 02:01:59;;;;;;;4.72;1.20;;;;;;;3.33;100.00;99645.53;6242970;23;20039;-70
2023/03/26 02:08:37;;;;;;;4.78;1.17;;;;;;;3.38;100.00;99632.69;6121062;23;20023;-71
2023/03/26 02:11:10;;;;;;;4.55;1.40;;;;;;;3.27;100.00;99632.81;6239307;23;20012;-69
2023/03/26 02:13:42;;;;;;;2.40;1.00;;;;;;;3.36;100.00;99639.13;6225102;23;20016;-71
2023/03/26 02:16:15;;;;;;;3.40;1.10;;;;;;;3.26;100.00;99636.47;6239855;23;20039;-71
2023/03/26 02:18:43;;;;;;;2.95;1.10;;;;;;;3.32;100.00;99638.56;6240078;23;20024;-72
2023/03/26 02:21:20;;;;;;;2.20;1.35;;;;;;;3.26;100.00;99641.75;6241746;23;20096;-70
2023/03/26 02:23:56;;;;;;;5.68;1.38;;;;;;;3.19;100.00;99635.34;6239704;23;20031;-72
2023/03/26 02:26:24;;;;;;;3.22;1.02;;;;;;;3.21;100.00;99637.88;6240790;23;20024;-72
2023/03/26 02:28:50;;;;;;;3.70;1.25;;;;;;;3.20;100.00;99642.31;6242567;22;20453;-72
2023/03/26 02:31:18;;;;;;;2.70;1.10;;;;;;;3.18;100.00;99638.97;6239407;23;20395;-72
2023/03/26 02:33:46;;;;;;;3.35;1.00;;;;;;;3.22;100.00;99635.06;6240585;23;20032;-72
2023/03/26 02:36:13;;;;;;;3.10;1.52;;;;;;;3.19;100.00;99642.47;6239730;23;20035;-71
2023/03/26 02:38:40;;;;;;;3.55;1.35;;;;;;;3.18;100.00;99644.28;6237522;23;20022;-72
2023/03/26 02:41:07;;;;;;;6.15;1.40;;;;;;;3.19;100.00;99645.94;6238813;23;20072;-71
2023/03/26 02:43:33;;;;;;;6.55;1.65;;;;;;;3.21;100.00;99641.34;6239325;23;20465;-71
2023/03/26 02:46:00;;;;;;;4.25;2.30;;;;;;;3.24;100.00;99654.34;6238196;23;20024;-70
2023/03/26 02:48:26;;;;;;;3.03;2.08;;;;;;;3.26;100.00;99655.00;6237664;23;20032;-71
2023/03/26 02:50:53;;;;;;;5.43;1.98;;;;;;;3.24;100.00;99649.03;6239126;23;20026;-72
2023/03/26 02:53:22;;;;;;;5.30;2.00;;;;;;;3.16;100.00;99651.53;6240564;23;20055;-71
2023/03/26 02:55:49;;;;;;;4.95;2.08;;;;;;;3.14;100.00;99649.03;6240709;23;20439;-71
2023/03/26 02:58:16;;;;;;;7.55;2.28;;;;;;;3.16;100.00;99656.81;6238572;23;20341;-71
2023/03/26 03:00:45;;;;;;;4.93;1.98;;;;;;;3.21;100.00;99654.59;6238529;23;20074;-71
2023/03/26 03:03:13;;;;;;;8.07;2.45;;;;;;;3.25;100.00;99660.47;6238637;23;20348;-71
2023/03/26 03:05:42;;;;;;;8.07;2.00;;;;;;;3.30;100.00;99666.19;6239736;23;20024;-72
2023/03/26 03:08:09;;;;;;;6.28;2.05;;;;;;;3.25;100.00;99663.94;6238677;23;20077;-71
2023/03/26 03:10:36;;;;;;;9.25;1.98;;;;;;;3.24;100.00;99659.63;6237014;23;20055;-71
2023/03/26 03:13:06;;;;;;;5.93;2.33;;;;;;;3.29;100.00;99660.03;6238217;23;20071;-71
2023/03/26 03:15:33;;;;;;;6.00;1.90;;;;;;;3.34;100.00;99665.78;6239566;23;20024;-72
2023/03/26 03:18:00;;;;;;;6.38;2.05;;;;;;;3.33;100.00;99664.09;6239417;23;20023;-72
2023/03/26 03:20:29;;;;;;;5.65;1.70;;;;;;;3.62;100.00;99669.38;6240020;23;20040;-72
2023/03/26 03:22:55;;;;;;;3.90;2.05;;;;;;;3.61;100.00;99667.69;6238365;23;20023;-72
2023/03/26 03:25:22;;;;;;;6.50;2.10;;;;;;;3.70;100.00;99663.38;6239636;23;20023;-72
2023/03/26 03:27:49;;;;;;;7.82;2.05;;;;;;;3.71;100.00;99672.16;6239963;22;20039;-71
2023/03/26 03:30:15;;;;;;;10.02;2.47;;;;;;;3.73;100.00;99660.44;6238122;23;20401;-72
2023/03/26 03:32:42;;;;;;;12.50;2.95;;;;;;;3.67;100.00;99666.31;6239415;23;20028;-71
2023/03/26 03:35:09;;;;;;;8.35;2.58;;;;;;;3.74;100.00;99678.03;6239421;23;20020;-72
2023/03/26 03:37:35;;;;;;;4.82;2.20;;;;;;;3.70;100.00;99671.34;6240485;23;20028;-71
2023/03/26 03:40:04;;;;;;;6.68;2.28;;;;;;;3.64;100.00;99677.19;6238401;23;20030;-72
2023/03/26 03:42:31;;;;;;;5.80;2.42;;;;;;;3.39;100.00;99668.00;6239337;23;20079;-72
2023/03/26 03:44:57;;;;;;;4.65;1.83;;;;;;;3.38;100.00;99671.63;6212707;23;20020;-72
2023/03/26 03:47:24;;;;;;;6.03;2.03;;;;;;;3.42;100.00;99677.50;6240021;23;20022;-72
2023/03/26 03:49:50;;;;;;;4.20;1.80;;;;;;;3.44;100.00;99671.06;6238902;23;20020;-71
2023/03/26 03:52:17;;;;;;;8.70;2.10;;;;;;;3.34;100.00;99676.38;6237496;23;20026;-71
2023/03/26 03:54:43;;;;;;;5.88;2.00;;;;;;;3.35;100.00;99680.69;6238611;23;20026;-73
2023/03/26 03:57:10;;;;;;;7.63;1.90;;;;;;;3.36;100.00;99685.00;6239015;23;20091;-71
2023/03/26 03:59:37;;;;;;;4.10;1.65;;;;;;;3.36;100.00;99676.22;6238477;23;20024;-72
2023/03/26 04:02:13;;;;;;;13.27;2.20;;;;;;;3.35;100.00;99675.41;6237548;23;20031;-71
2023/03/26 04:04:39;;;;;;;10.10;3.00;;;;;;;3.37;100.00;99676.06;6239872;23;20023;-71
2023/03/26 04:07:06;;;;;;;6.45;2.63;;;;;;;3.44;100.00;99683.47;6237979;23;20024;-71
2023/03/26 04:09:32;;;;;;;6.78;1.92;;;;;;;3.35;100.00;99691.31;6237521;23;20034;-72
2023/03/26 04:11:59;;;;;;;5.15;1.77;;;;;;;3.33;100.00;99689.75;6238576;23;20023;-71
2023/03/26 04:14:25;;;;;;;9.45;2.30;;;;;;;3.35;100.00;99698.41;6235825;23;20020;-72
2023/03/26 04:16:52;;;;;;;5.38;2.42;;;;;;;3.30;100.00;99685.56;6237774;23;20020;-73
2023/03/26 04:19:18;;;;;;;7.30;2.28;;;;;;;3.30;100.00;99693.50;6232603;23;20039;-73
2023/03/26 04:21:45;;;;;;;6.82;2.10;;;;;;;3.33;100.00;99695.06;6239101;23;20039;-72
2023/03/26 04:24:12;;;;;;;7.22;2.08;;;;;;;3.29;100.00;99693.66;6237342;23;20020;-72
2023/03/26 04:26:38;;;;;;;9.00;2.25;;;;;;;3.33;100.00;99690.59;6227756;23;20020;-72
2023/03/26 04:29:10;;;;;;;6.78;2.00;;;;;;;3.30;100.00;99690.88;6237761;22;20008;-72
2023/03/26 04:31:37;;;;;;;8.77;2.10;;;;;;;3.23;100.00;99689.75;6237372;23;20020;-72
2023/03/26 04:34:13;;;;;;;5.60;2.00;;;;;;;3.17;100.00;99695.63;6239469;23;20016;-73
2023/03/26 04:36:41;;;;;;;6.60;2.58;;;;;;;3.19;100.00;99680.41;6238657;23;20024;-72
2023/03/26 04:39:12;;;;;;;7.38;1.88;;;;;;;3.15;100.00;99690.44;6239683;23;20401;-72
2023/03/26 04:41:39;;;;;;;3.42;1.80;;;;;;;3.17;100.00;99694.75;6238803;23;20070;-72
2023/03/26 04:44:05;;;;;;;3.50;1.60;;;;;;;3.28;100.00;99697.31;6239312;23;20016;-72
2023/03/26 04:46:32;;;;;;;6.38;1.88;;;;;;;3.13;100.00;99699.50;6237891;23;20098;-72
2023/03/26 04:49:00;;;;;;;4.50;1.30;;;;;;;3.15;100.00;99692.25;6231409;23;20027;-72
2023/03/26 04:51:36;;;;;;;3.90;1.20;;;;;;;3.16;100.00;99693.91;6237378;23;20034;-71
2023/03/26 04:54:06;;;;;;;6.55;1.35;;;;;;;3.17;100.00;99692.97;6234599;23;20047;-72
2023/03/26 04:56:44;;;;;;;9.70;1.70;;;;;;;3.10;100.00;99692.69;6239216;23;20028;-72
2023/03/26 04:59:15;;;;;;;6.22;2.03;;;;;;;3.01;100.00;99690.00;6238149;23;20026;-72
2023/03/26 05:01:44;;;;;;;7.97;2.08;;;;;;;3.10;100.00;99694.47;6239068;23;20032;-72
2023/03/26 05:04:12;;;;;;;6.13;2.20;;;;;;;3.18;100.00;99691.16;6238686;23;20449;-72
2023/03/26 05:06:40;;;;;;;6.47;2.22;;;;;;;3.20;100.00;99687.38;6239278;23;20043;-72
2023/03/26 05:09:09;;;;;;;6.50;1.65;;;;;;;3.21;100.00;99691.72;6238788;23;20408;-71
2023/03/26 05:11:36;;;;;;;6.90;1.73;;;;;;;3.21;100.00;99686.41;6239126;23;20404;-72
2023/03/26 05:14:02;;;;;;;7.93;2.13;;;;;;;3.23;100.00;99684.44;6238246;23;20114;-71
2023/03/26 05:16:30;;;;;;;6.25;2.33;;;;;;;3.17;100.00;99685.03;6239719;23;20461;-72
2023/03/26 05:18:57;;;;;;;7.65;2.10;;;;;;;3.29;100.00;99691.84;6237899;23;20078;-72
2023/03/26 05:21:23;;;;;;;6.88;2.15;;;;;;;3.23;100.00;99679.16;6240647;23;20073;-72
2023/03/26 05:23:50;;;;;;;9.55;2.40;;;;;;;3.25;100.00;99690.47;6237932;23;20104;-73
2023/03/26 05:26:17;;;;;;;10.30;2.67;;;;;;;3.30;100.00;99690.03;6240371;23;20026;-73
2023/03/26 05:28:43;;;;;;;7.65;2.17;;;;;;;3.29;100.00;99701.63;6241683;22;20030;-73
2023/03/26 05:31:10;;;;;;;6.95;1.75;;;;;;;3.33;100.00;99684.47;6240830;23;20480;-73
2023/03/26 05:33:37;;;;;;;7.05;2.05;;;;;;;3.31;100.00;99691.72;6242790;23;20024;-73
2023/03/26 05:36:12;;;;;;;7.88;2.28;;;;;;;3.35;100.00;99693.13;6241585;23;20091;-73
2023/03/26 05:38:38;;;;;;;6.38;1.65;;;;;;;3.40;100.00;99696.19;6241028;23;20028;-73
2023/03/26 05:41:07;;;;;;;10.68;2.28;;;;;;;3.27;100.00;99700.91;6242235;23;20356;-73
2023/03/26 05:43:35;;;;;;;12.57;1.73;;;;;;;3.38;100.00;99698.97;6241033;23;20051;-73
2023/03/26 05:46:02;;;;;;;7.47;1.73;;;;;;;3.44;100.00;99700.22;6241682;23;20024;-72
2023/03/26 05:48:29;;;;;;;7.85;1.90;;;;;;;3.56;100.00;99707.06;6214300;23;20023;-72
2023/03/26 05:50:57;;;;;;;6.70;1.92;;;;;;;3.54;100.00;99702.88;6243080;23;20024;-72
2023/03/26 05:53:25;;;;;;;8.57;2.28;;;;;;;3.51;100.00;99703.16;6241105;23;20019;-72
2023/03/26 05:55:59;;;;;;;8.85;2.00;;;;;;;3.57;100.00;99702.59;6241642;23;20099;-72
2023/03/26 05:58:28;;;;;;;9.13;2.13;;;;;;;3.57;100.00;99708.75;6241696;23;20020;-71
2023/03/26 06:01:04;;;;;;;12.20;2.25;;;;;;;3.65;100.00;99707.19;6243193;23;20516;-72
2023/03/26 06:03:32;;;;;;;13.48;1.92;;;;;;;3.58;100.00;99705.09;6241584;23;20020;-73
2023/03/26 06:05:59;;;;;;;10.52;2.17;;;;;;;3.58;100.00;99706.91;6238001;23;20050;-73
2023/03/26 06:08:26;;;;;;;6.85;1.92;;;;;;;3.65;100.00;99704.53;6242818;23;20028;-73
2023/03/26 06:11:00;;;;;;;7.03;1.85;;;;;;;3.64;100.00;99703.72;6241949;23;20016;-73
2023/03/26 06:13:27;;;;;;;8.38;1.90;;;;;;;3.55;100.00;99709.84;6241396;23;20028;-73
2023/03/26 06:15:54;;;;;;;13.40;2.58;;;;;;;3.52;100.00;99715.47;6241616;23;20026;-72
2023/03/26 06:18:21;;;;;;;9.75;2.30;;;;;;;3.53;100.00;99717.13;6240449;23;20035;-73
2023/03/26 06:20:48;;;;;;;7.30;2.08;;;;;;;3.65;100.00;99716.00;6242404;23;20023;-72
2023/03/26 06:23:15;;;;;;;5.97;2.10;;;;;;;3.70;100.00;99713.78;6241483;23;20024;-72
2023/03/26 06:25:44;;;;;;;4.72;1.85;;;;;;;3.75;100.00;99713.34;6236362;23;20106;-72
2023/03/26 06:28:11;;;;;;;6.68;1.70;;;;;;;3.66;100.00;99711.56;6241354;22;20016;-72
2023/03/26 06:30:39;;;;;;;9.25;1.88;;;;;;;3.81;100.00;99721.56;6241425;23;20475;-73
2023/03/26 06:33:05;;;;;;;3.95;1.58;;;;;;;3.79;100.00;99717.38;6245843;22;20015;-70
2023/03/26 06:35:32;;;;;;;8.00;1.70;;;;;;;3.80;100.00;99724.38;6261603;22;20004;-71
2023/03/26 06:37:58;;;;;;;8.73;1.92;;;;;;;3.87;100.00;99725.50;6269546;22;20052;-70
2023/03/26 06:40:25;;;;;;;6.57;1.52;;;;;;;3.98;100.00;99732.47;6270871;22;20009;-70
2023/03/26 06:42:52;;;;;;;10.85;1.80;;;;;;;3.98;100.00;99727.97;6270363;22;20043;-70
2023/03/26 06:45:35;;;;;;;5.00;1.50;;;;;;;3.96;100.00;99731.75;6268795;22;20167;-71
2023/03/26 06:48:01;;;;;;;6.35;1.40;;;;;;;3.84;100.00;99728.41;6260523;22;20011;-71
2023/03/26 06:50:28;;;;;;;5.65;1.42;;;;;;;3.89;100.00;99728.00;6271174;22;20028;-70
2023/03/26 06:52:55;;;;;;;7.18;1.40;;;;;;;4.02;100.00;99724.06;6269584;22;20009;-71
2023/03/26 06:55:22;;;;;;;10.73;2.15;;;;;;;4.01;100.00;99733.00;6269172;22;20027;-70
2023/03/26 06:57:51;;;;;;;7.95;1.40;;;;;;;4.21;100.00;99731.16;6251881;22;20086;-71
2023/03/26 07:00:18;;;;;;;7.05;1.63;;;;;;;4.10;100.00;99733.97;6249576;23;20000;-70
2023/03/26 07:02:45;;;;;;;9.38;1.52;;;;;;;4.23;100.00;99737.16;6269253;22;20040;-71
2023/03/26 07:05:12;;;;;;;5.47;1.33;;;;;;;4.32;100.00;99735.47;6268343;22;20031;-70
2023/03/26 07:07:39;;;;;;;8.57;1.58;;;;;;;4.40;100.00;99734.75;6268735;22;20031;-70
2023/03/26 07:10:13;;;;;;;5.95;1.40;;;;;;;4.62;100.00;99737.06;6270072;22;20008;-69
2023/03/26 07:12:41;;;;;;;6.43;1.40;;;;;;;4.78;100.00;99741.75;6261504;22;20020;-76
2023/03/26 07:15:09;;;;;;;6.32;1.10;;;;;;;4.83;100.00;99734.16;6240092;23;20027;-75
2023/03/26 07:17:36;;;;;;;4.45;1.20;;;;;;;4.90;100.00;99731.75;6240774;23;20390;-75
2023/03/26 07:20:05;;;;;;;5.68;1.27;;;;;;;5.05;100.00;99730.28;6242003;23;20028;-73
2023/03/26 07:22:32;;;;;;;11.07;1.50;;;;;;;4.98;100.00;99726.56;6230922;23;20074;-75
2023/03/26 07:24:59;;;;;;;9.38;1.70;;;;;;;4.91;100.00;99730.78;6216025;23;20446;-75
2023/03/26 07:28:03;;;;;;;5.63;1.20;;;;;;;4.85;100.00;99724.22;6266656;22;20015;-69
2023/03/26 07:30:48;;;;;;;8.70;1.35;;;;;;;4.68;100.00;99725.84;6267983;22;20065;-70
2023/03/26 07:33:32;;;;;;;7.28;1.30;;;;;;;4.74;100.00;99735.06;6268459;22;20031;-72
2023/03/26 07:36:05;;;;;;;8.18;1.98;;;;;;;5.00;100.00;99743.16;6254571;22;20008;-72
2023/03/26 07:38:37;;;;;;;7.75;1.98;;;;;;;4.91;100.00;99741.41;6268024;22;20051;-72
2023/03/26 07:41:21;;;;;;;10.38;1.92;;;;;;;4.64;100.00;99739.59;6266986;22;20035;-72
2023/03/26 07:43:54;;;;;;;7.10;1.52;;;;;;;4.64;100.00;99739.59;6258080;23;20060;-71
2023/03/26 07:46:28;;;;;;;8.38;1.70;;;;;;;4.58;100.00;99741.81;6269017;22;20016;-72
2023/03/26 07:48:57;;;;;;;8.27;1.40;;;;;;;4.53;100.00;99740.59;6267725;22;20016;-72
2023/03/26 07:51:23;;;;;;;5.28;1.15;;;;;;;4.58;100.00;99741.81;6267005;22;20080;-71
2023/03/26 07:53:50;;;;;;;8.45;1.63;;;;;;;4.42;100.00;99746.94;6242658;22;20020;-72
2023/03/26 07:56:29;;;;;;;6.57;1.33;;;;;;;4.40;100.00;99743.56;6266688;22;20024;-72
2023/03/26 07:59:00;;;;;;;7.95;1.25;;;;;;;4.64;100.00;99740.41;6268185;22;20004;-70
2023/03/26 08:01:51;;;;;;;6.22;1.38;;;;;;;4.39;100.00;99730.44;6267675;23;20039;-69
2023/03/26 08:04:41;;;;;;;8.83;1.63;;;;;;;4.45;100.00;99735.16;6267363;23;20035;-71
2023/03/26 08:07:19;;;;;;;8.55;1.95;;;;;;;4.26;100.00;99742.16;6267481;22;20024;-70
2023/03/26 08:10:02;;;;;;;13.88;1.75;;;;;;;4.21;100.00;99733.81;6267585;22;20067;-71
2023/03/26 08:12:35;;;;;;;8.77;1.50;;;;;;;4.31;100.00;99733.75;6268513;23;20008;-71
2023/03/26 08:15:15;;;;;;;10.20;2.10;;;;;;;4.32;100.00;99730.97;6253226;23;20080;-71
2023/03/26 08:17:51;;;;;;;9.63;1.63;;;;;;;4.47;100.00;99733.22;6266567;23;20016;-72
2023/03/26 08:20:24;;;;;;;5.45;1.73;;;;;;;4.58;100.00;99731.19;6241645;23;20004;-70
2023/03/26 08:23:04;;;;;;;8.82;1.83;;;;;;;4.52;100.00;99736.25;6268288;23;20008;-70
2023/03/26 08:25:39;;;;;;;16.13;2.35;;;;;;;4.62;100.00;99728.25;6267715;22;20015;-71
2023/03/26 08:28:33;;;;;;;9.15;1.85;;;;;;;4.72;100.00;99731.69;6264599;22;20031;-69
2023/03/26 08:31:01;;;;;;;9.75;2.30;;;;;;;4.77;100.00;99732.94;6261062;23;20031;-70
2023/03/26 08:33:29;;;;;;;8.27;2.03;;;;;;;4.91;100.00;99726.31;6266883;22;20127;-70
2023/03/26 08:35:55;;;;;;;8.88;2.08;;;;;;;5.16;100.00;99727.41;6268673;22;20020;-71
2023/03/26 08:38:22;;;;;;;8.55;1.60;;;;;;;4.95;100.00;99722.38;6258899;23;20020;-70
2023/03/26 08:40:55;;;;;;;14.98;2.90;;;;;;;4.81;100.00;99721.03;6268377;22;20004;-70
2023/03/26 08:43:30;;;;;;;8.77;1.98;;;;;;;4.96;100.00;99720.53;6249359;23;20350;-73
2023/03/26 08:46:29;;;;;;;10.02;1.85;;;;;;;5.04;100.00;99725.97;6237666;23;20091;-73
2023/03/26 08:49:00;;;;;;;9.50;2.15;;;;;;;5.21;100.00;99718.97;6233746;23;20024;-72
2023/03/26 08:51:48;;;;;;;7.68;2.28;;;;;;;5.44;100.00;99717.56;6240505;23;20104;-73
2023/03/26 08:54:42;;;;;;;8.68;2.70;;;;;;;5.42;100.00;99716.03;6239179;23;20100;-73
2023/03/26 08:57:39;;;;;;;8.32;2.15;;;;;;;5.61;100.00;99712.41;6236581;23;20026;-72
2023/03/26 09:00:39;;;;;;;14.57;2.95;;;;;;;5.52;100.00;99708.81;6237787;23;20024;-73
2023/03/26 09:03:30;;;;;;;9.45;2.30;;;;;;;5.64;100.00;99701.44;6241717;23;20051;-73
2023/03/26 09:06:21;;;;;;;10.00;2.88;;;;;;;5.50;100.00;99694.84;6240376;23;20023;-72
2023/03/26 09:09:38;;;;;;;11.95;2.53;;;;;;;5.47;100.00;99697.81;6241077;23;20357;-73
2023/03/26 09:12:27;;;;;;;15.23;2.83;;;;;;;5.23;100.00;99701.91;6188601;23;20500;-73
2023/03/26 09:15:09;;;;;;;10.57;1.98;;;;;;;5.33;100.00;99693.84;6225171;22;20020;-73
2023/03/26 09:17:57;;;;;;;12.90;2.15;;;;;;;5.34;100.00;99689.38;6242680;23;20072;-73
2023/03/26 09:21:04;;;;;;;9.70;2.28;;;;;;;5.58;100.00;99692.25;6240526;23;20353;-72
2023/03/26 09:24:01;;;;;;;7.43;2.05;;;;;;;5.41;100.00;99688.59;6215401;23;20035;-72
2023/03/26 09:26:36;;;;;;;15.68;3.28;;;;;;;5.55;100.00;99683.75;6232505;23;20431;-73
2023/03/26 09:29:24;;;;;;;14.13;2.13;;;;;;;5.55;100.00;99689.06;6241457;22;20027;-73
2023/03/26 09:32:12;;;;;;;13.65;2.70;;;;;;;5.55;100.00;99686.41;6241307;23;20349;-73
2023/03/26 09:35:02;;;;;;;6.63;2.33;;;;;;;5.58;100.00;99692.25;6240522;23;20526;-73
2023/03/26 09:37:40;;;;;;;12.43;2.72;;;;;;;5.63;100.00;99684.66;6238514;23;20026;-73
2023/03/26 09:40:42;;;;;;;10.45;1.60;;;;;;;5.73;100.00;99685.41;6234877;23;20024;-73
2023/03/26 09:43:32;;;;;;;10.77;2.63;;;;;;;5.93;100.00;99687.88;6241647;23;20074;-73
2023/03/26 09:46:20;;;;;;;12.13;2.88;;;;;;;6.07;100.00;99681.97;6241635;23;20453;-72
2023/03/26 09:49:05;;;;;;;7.30;2.03;;;;;;;6.28;100.00;99694.13;6241287;23;20031;-73
2023/03/26 09:51:45;;;;;;;11.40;2.40;;;;;;;6.41;100.00;99689.19;6241939;23;20461;-73
2023/03/26 09:54:26;;;;;;;8.85;2.05;;;;;;;6.23;100.00;99681.25;6243138;23;20095;-72
2023/03/26 09:57:23;;;;;;;8.27;1.70;;;;;;;6.22;100.00;99691.06;6241533;23;20039;-73
2023/03/26 10:00:12;;;;;;;8.50;2.28;;;;;;;6.38;100.00;99697.50;6240799;23;20020;-72
2023/03/26 10:02:52;;;;;;;12.88;2.13;;;;;;;6.62;100.00;99699.47;6242258;23;20095;-71
2023/03/26 10:05:41;;;;;;;8.50;1.77;;;;;;;6.67;100.00;99700.66;6238626;23;20067;-71
2023/03/26 10:08:23;;;;;;;11.30;2.75;;;;;;;6.86;100.00;99696.06;6242376;23;20027;-72
2023/03/26 10:11:02;;;;;;;6.65;1.63;;;;;;;6.53;100.00;99687.94;6240908;23;20441;-72
2023/03/26 10:13:53;;;;;;;7.45;1.90;;;;;;;6.52;100.00;99699.56;6240964;23;20048;-72
2023/03/26 10:16:44;;;;;;;12.00;2.38;;;;;;;6.51;100.00;99697.91;6240788;23;20026;-72
2023/03/26 10:19:28;;;;;;;9.50;2.83;;;;;;;6.42;100.00;99697.03;6241107;23;20020;-72
2023/03/26 10:22:14;;;;;;;6.72;1.98;;;;;;;6.42;100.00;99688.19;6241420;23;20026;-72
2023/03/26 10:25:00;;;;;;;7.78;1.80;;;;;;;6.31;100.00;99691.97;6241826;23;20103;-72
2023/03/26 10:27:43;;;;;;;9.48;2.28;;;;;;;6.26;100.00;99686.28;6241313;22;20031;-73
2023/03/26 10:30:51;;;;;;;9.80;2.03;;;;;;;6.18;100.00;99683.53;6240629;23;20108;-73
2023/03/26 10:33:36;;;;;;;8.27;1.60;;;;;;;6.14;100.00;99692.84;6158781;23;20099;-72
2023/03/26 10:36:30;;;;;;;15.27;1.95;;;;;;;6.48;100.00;99690.22;6241720;23;20020;-72
2023/03/26 10:39:18;;;;;;;10.20;2.45;;;;;;;6.46;100.00;99686.91;6238744;23;20030;-72
2023/03/26 10:42:19;;;;;;;8.43;1.88;;;;;;;6.40;100.00;99693.69;6240280;23;20054;-72
2023/03/26 10:44:57;;;;;;;11.48;2.42;;;;;;;6.56;100.00;99689.44;6241254;23;20016;-73
2023/03/26 10:47:39;;;;;;;12.63;2.55;;;;;;;6.52;100.00;99683.59;6240164;23;20020;-72
2023/03/26 10:50:28;;;;;;;11.20;2.42;;;;;;;6.74;100.00;99689.34;6241087;23;20082;-72
2023/03/26 10:53:44;;;;;;;8.18;1.75;;;;;;;6.59;100.00;99686.44;6240562;23;20039;-72
2023/03/26 10:56:31;;;;;;;11.85;2.08;;;;;;;6.41;100.00;99687.38;6206008;23;20024;-72
2023/03/26 10:59:04;;;;;;;10.70;2.22;;;;;;;6.09;100.00;99682.66;6240309;23;20028;-73
2023/03/26 11:01:33;;;;;;;6.32;1.88;;;;;;;6.41;100.00;99682.03;6228878;23;20067;-73
2023/03/26 11:04:29;;;;;;;12.43;3.42;;;;;;;6.54;100.00;99684.28;6241114;23;20023;-73
2023/03/26 11:07:15;;;;;;;19.63;3.60;;;;;;;6.95;100.00;99681.78;6239474;23;20513;-72
2023/03/26 11:10:02;;;;;;;12.63;3.05;;;;;;;7.14;100.00;99672.63;6240941;23;20058;-71
2023/03/26 11:12:51;;;;;;;7.85;2.00;;;;;;;7.51;100.00;99672.19;6239011;23;20016;-72
2023/03/26 11:15:50;;;;;;;12.55;1.83;;;;;;;7.60;100.00;99673.00;6240562;23;20097;-72
2023/03/26 11:18:34;;;;;;;8.43;2.03;;;;;;;7.66;100.00;99672.34;6241254;23;20473;-71
2023/03/26 11:21:10;;;;;;;9.77;1.90;;;;;;;7.60;100.00;99665.00;6241609;23;20099;-71
2023/03/26 11:24:10;;;;;;;14.10;2.60;;;;;;;7.33;100.00;99663.50;6234011;23;20090;-72
2023/03/26 11:26:57;;;;;;;6.32;1.90;;;;;;;7.18;100.00;99664.13;6239335;23;20025;-71
2023/03/26 11:29:59;;;;;;;7.30;2.85;;;;;;;7.01;100.00;99665.09;6239770;22;20023;-72
2023/03/26 11:32:36;;;;;;;8.57;2.03;;;;;;;7.12;100.00;99666.66;6238157;23;20496;-71
2023/03/26 11:35:14;;;;;;;5.57;1.63;;;;;;;6.88;100.00;99672.75;6239573;23;20047;-72
2023/03/26 11:37:45;;;;;;;10.02;2.45;;;;;;;7.04;100.00;99670.09;6240567;23;20020;-72
2023/03/26 11:40:27;;;;;;;9.48;2.00;;;;;;;7.19;100.00;99663.16;6239493;23;20018;-72
2023/03/26 11:42:59;;;;;;;;;;;;;;;7.64;100.00;99667.19;6237333;23;20449;-72
2023/03/26 11:45:30;;;;;;;7.72;1.60;;;;;;;7.48;100.00;99661.84;6240647;23;19922;-72
2023/03/26 11:48:09;;;;;;;7.95;1.83;;;;;;;7.31;100.00;99663.66;6240073;23;20365;-72
2023/03/26 11:50:43;;;;;;;11.68;1.65;;;;;;;7.52;100.00;99659.69;6239617;23;20353;-71
2023/03/26 11:53:21;;;;;;;6.80;1.35;;;;;;;7.47;100.00;99654.84;6241051;23;20071;-72
2023/03/26 11:55:52;;;;;;;7.05;2.15;;;;;;;7.39;100.00;99647.66;6240244;23;20020;-72
2023/03/26 11:58:32;;;;;;;4.90;1.42;;;;;;;7.46;100.00;99650.50;6240308;23;20096;-72
2023/03/26 12:01:11;;;;;;;6.32;1.70;;;;;;;7.52;100.00;99652.50;6239353;23;20020;-72
2023/03/26 12:03:39;;;;;;;8.93;1.42;;;;;;;7.31;100.00;99650.31;6240804;23;20369;-72
2023/03/26 12:06:24;;;;;;;6.78;1.42;;;;;;;7.49;100.00;99647.50;6213158;23;20027;-72
2023/03/26 12:08:52;;;;;;;5.47;1.35;;;;;;;7.07;100.00;99637.78;6241481;23;20445;-72
2023/03/26 12:11:25;;;;;;;4.25;1.45;;;;;;;6.90;100.00;99630.75;6241811;23;20043;-72